Flight Track Log - Related Links

Times and Time Zones

All times are in EDT time to prevent confusion due to time zone crossing. See the TPA703 flight status page for this flight to view local times or setup timezone preferences in your user account.

Time Position Orientation Groundspeed Altitude Reporting Facility
EDT Latitude Longitude Course Direction KTS MPH feet Rate Location/Type
Sat 08:31:17 AM 25.7856 -80.2719 111° Southeast 191 220 900  Level Miami Center
Sat 08:31:47 AM 25.7758 -80.2439 111° Southeast 200 230 1,800 1,816 Climbing Miami Center
Sat 08:32:33 AM 25.7603 -80.1903 108° East 243 280 3,200 2,377 Climbing Miami Center
Sat 08:33:33 AM 25.6986 -80.1494 149° Southeast 249 287 6,000 2,900 Climbing Miami Center
Sat 08:34:33 AM 25.6242 -80.1175 159° South 257 296 9,000 2,400 Climbing Miami Center
Sat 08:35:33 AM 25.5578 -80.0903 160° South 270 311 10,800 1,500 Climbing Miami Center
Sat 08:36:33 AM 25.4625 -80.0533 161° South 312 359 12,000 1,800 Climbing Miami Center
Sat 08:37:33 AM 25.3592 -80.0114 160° South 364 419 14,400 2,400 Climbing Miami Center
Sat 08:38:33 AM 25.2533 -79.9697 160° South 392 451 16,800 2,250 Climbing Miami Center
Sat 08:39:33 AM 25.1414 -79.9256 160° South 415 478 18,900 2,000 Climbing Miami Center
Sat 08:40:33 AM 25.0233 -79.8836 162° South 434 499 20,800 1,850 Climbing Miami Center
Sat 08:41:33 AM 24.9008 -79.8372 161° South 447 514 22,600 1,800 Climbing Miami Center
Sat 08:42:33 AM 24.7764 -79.7931 162° South 462 532 24,400 1,750 Climbing Miami Center
Sat 08:43:33 AM 24.6500 -79.7489 162° South 467 537 26,100 1,700 Climbing Miami Center
Sat 08:44:33 AM 24.5233 -79.7003 161° South 480 552 27,800 1,850 Climbing Miami Center
Sat 08:45:33 AM 24.3969 -79.6539 162° South 485 558 29,800 1,950 Climbing Miami Center
Sat 08:46:33 AM 24.2722 -79.6078 161° South 474 545 31,700 1,600 Climbing Miami Center
Sat 08:47:33 AM 24.1519 -79.5664 163° South 469 540 33,000 650 Climbing Miami Center
Sat 08:48:33 AM 24.0294 -79.5206 161° South 464 534 33,000  Level Miami Center
Sat 08:50:00 AM 23.8617 -79.4538 163° South  Level FlightAware Approximate
Sat 08:57:00 AM 23.0377 -79.1659 162° South  Level FlightAware Approximate
Sat 08:58:00 AM 22.9202 -79.1242 162° South  Level FlightAware Approximate
Sat 08:59:00 AM 22.8027 -79.0825 162° South  Level FlightAware Approximate
Sat 09:00:00 AM 22.6852 -79.0410 162° South  Level FlightAware Approximate
Sat 09:01:00 AM 22.5676 -78.9995 162° South  Level FlightAware Approximate
Sat 09:02:00 AM 22.4501 -78.9580 162° South  Level FlightAware Approximate
Sat 09:03:00 AM 22.3326 -78.9166 162° South  Level FlightAware Approximate
Sat 09:04:00 AM 22.2150 -78.8753 162° South  Level FlightAware Approximate
Sat 09:05:00 AM 22.0974 -78.8341 162° South  Level FlightAware Approximate
Sat 09:06:00 AM 21.9795 -78.7941 165° South  Level FlightAware Approximate
Sat 09:07:00 AM 21.8601 -78.7600 165° South  Level FlightAware Approximate
Sat 09:08:00 AM 21.7406 -78.7258 165° South  Level FlightAware Approximate
Sat 09:09:00 AM 21.6211 -78.6918 165° South  Level FlightAware Approximate
Sat 09:10:00 AM 21.5016 -78.6578 165° South  Level FlightAware Approximate
Sat 09:11:00 AM 21.3821 -78.6238 165° South  Level FlightAware Approximate
Sat 09:12:00 AM 21.2626 -78.5899 165° South  Level FlightAware Approximate
Sat 09:13:00 AM 21.1430 -78.5561 165° South  Level FlightAware Approximate
Sat 09:14:00 AM 21.0235 -78.5223 165° South  Level FlightAware Approximate
Sat 09:15:00 AM 20.9040 -78.4886 165° South  Level FlightAware Approximate
Sat 09:16:00 AM 20.7844 -78.4549 165° South  Level FlightAware Approximate
Sat 09:17:00 AM 20.6649 -78.4213 165° South  Level FlightAware Approximate
Sat 09:18:00 AM 20.5453 -78.3877 165° South  Level FlightAware Approximate
Sat 09:19:00 AM 20.4258 -78.3542 165° South  Level FlightAware Approximate
Sat 09:20:00 AM 20.3062 -78.3207 165° South  Level FlightAware Approximate
Sat 09:21:00 AM 20.1866 -78.2873 165° South  Level FlightAware Approximate
Sat 09:22:00 AM 20.0671 -78.2539 165° South  Level FlightAware Approximate
Sat 09:23:00 AM 19.9475 -78.2206 165° South  Level FlightAware Approximate
Sat 09:24:00 AM 19.8279 -78.1872 165° South  Level FlightAware Approximate
Sat 09:25:00 AM 19.7084 -78.1539 165° South  Level FlightAware Approximate
Sat 09:26:00 AM 19.5888 -78.1206 165° South  Level FlightAware Approximate
Sat 09:27:00 AM 19.4692 -78.0873 165° South  Level FlightAware Approximate
Sat 09:28:00 AM 19.3496 -78.0541 165° South  Level FlightAware Approximate
Sat 09:29:00 AM 19.2300 -78.0210 165° South  Level FlightAware Approximate
Sat 09:30:00 AM 19.1105 -77.9878 165° South  Level FlightAware Approximate
Sat 09:31:00 AM 18.9909 -77.9548 165° South  Level FlightAware Approximate
Sat 09:32:00 AM 18.8713 -77.9218 165° South  Level FlightAware Approximate
Sat 09:33:00 AM 18.7516 -77.8888 165° South  Level FlightAware Approximate
Sat 09:34:00 AM 18.6320 -77.8559 165° South  Level FlightAware Approximate
Sat 09:35:00 AM 18.5124 -77.8230 165° South  Level FlightAware Approximate
Sat 09:36:00 AM 18.3928 -77.7902 165° South  Level FlightAware Approximate
Sat 09:37:00 AM 18.2731 -77.7574 165° South  Level FlightAware Approximate
Sat 09:38:00 AM 18.1535 -77.7247 165° South  Level FlightAware Approximate
Sat 09:39:00 AM 18.0339 -77.6920 165° South  Level FlightAware Approximate
Sat 09:40:00 AM 17.9142 -77.6593 165° South  Level FlightAware Approximate
Sat 09:41:00 AM 17.7945 -77.6267 165° South  Level FlightAware Approximate
Sat 09:42:00 AM 17.6749 -77.5942 165° South  Level FlightAware Approximate
Sat 09:43:00 AM 17.5552 -77.5617 165° South  Level FlightAware Approximate
Sat 09:44:00 AM 17.4356 -77.5292 165° South  Level FlightAware Approximate
Sat 09:45:00 AM 17.3159 -77.4968 165° South  Level FlightAware Approximate
Sat 09:46:00 AM 17.1962 -77.4644 166° South  Level FlightAware Approximate
Sat 09:47:00 AM 17.0765 -77.4320 166° South  Level FlightAware Approximate
Sat 09:48:00 AM 16.9568 -77.3997 166° South  Level FlightAware Approximate
Sat 09:49:00 AM 16.8371 -77.3675 166° South  Level FlightAware Approximate
Sat 09:50:00 AM 16.7174 -77.3353 166° South  Level FlightAware Approximate
Sat 09:51:00 AM 16.5977 -77.3031 166° South  Level FlightAware Approximate
Sat 09:52:00 AM 16.4780 -77.2709 166° South  Level FlightAware Approximate
Sat 09:53:00 AM 16.3583 -77.2385 165° South  Level FlightAware Approximate
Sat 09:54:00 AM 16.2388 -77.2056 165° South  Level FlightAware Approximate
Sat 09:55:00 AM 16.1193 -77.1727 165° South  Level FlightAware Approximate
Sat 09:56:00 AM 15.9998 -77.1399 165° South  Level FlightAware Approximate
Sat 09:57:00 AM 15.8803 -77.1071 165° South  Level FlightAware Approximate
Sat 09:58:00 AM 15.7607 -77.0743 165° South  Level FlightAware Approximate
Sat 09:59:00 AM 15.6412 -77.0416 165° South  Level FlightAware Approximate
Sat 10:00:00 AM 15.5217 -77.0089 165° South  Level FlightAware Approximate
Sat 10:01:00 AM 15.4021 -76.9762 165° South  Level FlightAware Approximate
Sat 10:02:00 AM 15.2826 -76.9436 165° South  Level FlightAware Approximate
Sat 10:03:00 AM 15.1630 -76.9110 165° South  Level FlightAware Approximate
Sat 10:04:00 AM 15.0435 -76.8785 165° South  Level FlightAware Approximate
Sat 10:05:00 AM 14.9228 -76.8513 169° South  Level FlightAware Approximate
Sat 10:06:00 AM 14.8014 -76.8272 169° South  Level FlightAware Approximate
Sat 10:07:00 AM 14.6800 -76.8031 169° South  Level FlightAware Approximate
Sat 10:08:00 AM 14.5586 -76.7790 169° South  Level FlightAware Approximate
Sat 10:09:00 AM 14.4372 -76.7550 169° South  Level FlightAware Approximate
Sat 10:10:00 AM 14.3158 -76.7310 169° South  Level FlightAware Approximate
Sat 10:11:00 AM 14.1944 -76.7070 169° South  Level FlightAware Approximate
Sat 10:12:00 AM 14.0730 -76.6830 169° South  Level FlightAware Approximate
Sat 10:13:00 AM 13.9515 -76.6591 169° South  Level FlightAware Approximate
Sat 10:14:00 AM 13.8301 -76.6351 169° South  Level FlightAware Approximate
Sat 10:15:00 AM 13.7087 -76.6113 169° South  Level FlightAware Approximate
Sat 10:16:00 AM 13.5873 -76.5874 169° South  Level FlightAware Approximate
Sat 10:17:00 AM 13.4660 -76.5629 169° South  Level FlightAware Approximate
Sat 10:18:00 AM 13.3447 -76.5383 169° South  Level FlightAware Approximate
Sat 10:19:00 AM 13.2235 -76.5137 169° South  Level FlightAware Approximate
Sat 10:20:00 AM 13.1022 -76.4891 169° South  Level FlightAware Approximate
Sat 10:21:00 AM 12.9809 -76.4645 169° South  Level FlightAware Approximate
Sat 10:22:00 AM 12.8596 -76.4400 169° South  Level FlightAware Approximate
Sat 10:23:00 AM 12.7383 -76.4155 169° South  Level FlightAware Approximate
Sat 10:24:00 AM 12.6171 -76.3910 169° South  Level FlightAware Approximate
Sat 10:25:00 AM 12.4958 -76.3666 169° South  Level FlightAware Approximate
Sat 10:26:00 AM 12.3745 -76.3421 169° South  Level FlightAware Approximate
Sat 10:27:00 AM 12.2532 -76.3177 169° South  Level FlightAware Approximate
Sat 10:28:00 AM 12.1319 -76.2934 169° South  Level FlightAware Approximate
Sat 10:29:00 AM 12.0106 -76.2690 169° South  Level FlightAware Approximate
Sat 10:30:00 AM 11.8893 -76.2447 169° South  Level FlightAware Approximate
Sat 10:31:00 AM 11.7680 -76.2203 169° South  Level FlightAware Approximate
Sat 10:32:00 AM 11.6467 -76.1960 169° South  Level FlightAware Approximate
Sat 10:33:00 AM 11.5254 -76.1718 169° South  Level FlightAware Approximate
Sat 10:34:00 AM 11.4041 -76.1475 169° South  Level FlightAware Approximate
Sat 10:35:00 AM 11.2828 -76.1231 169° South  Level FlightAware Approximate
Sat 10:36:00 AM 11.1615 -76.0988 169° South  Level FlightAware Approximate
Sat 10:37:00 AM 11.0402 -76.0744 169° South  Level FlightAware Approximate
Sat 10:38:00 AM 10.9189 -76.0501 169° South  Level FlightAware Approximate
Sat 10:39:00 AM 10.7976 -76.0259 169° South  Level FlightAware Approximate
Sat 10:40:00 AM 10.6763 -76.0016 169° South  Level FlightAware Approximate
Sat 10:41:00 AM 10.5550 -75.9774 169° South  Level FlightAware Approximate
Sat 10:42:00 AM 10.4338 -75.9531 169° South  Level FlightAware Approximate
Sat 10:43:00 AM 10.3125 -75.9289 169° South  Level FlightAware Approximate
Sat 10:44:00 AM 10.1911 -75.9047 169° South  Level FlightAware Approximate
Sat 10:45:00 AM 10.0698 -75.8806 169° South  Level FlightAware Approximate
Sat 10:46:00 AM 9.9484 -75.8570 170° South  Level FlightAware Approximate
Sat 10:47:00 AM 9.8269 -75.8341 170° South  Level FlightAware Approximate
Sat 10:48:00 AM 9.7053 -75.8113 170° South  Level FlightAware Approximate
Sat 10:49:00 AM 9.5838 -75.7885 170° South  Level FlightAware Approximate
Sat 10:50:00 AM 9.4622 -75.7657 170° South  Level FlightAware Approximate
Sat 10:51:00 AM 9.3407 -75.7429 170° South  Level FlightAware Approximate
Sat 10:52:00 AM 9.2191 -75.7201 170° South  Level FlightAware Approximate
Sat 10:53:00 AM 9.0976 -75.6974 170° South  Level FlightAware Approximate
Sat 10:54:00 AM 8.9760 -75.6747 170° South  Level FlightAware Approximate
Sat 10:55:00 AM 8.8547 -75.6504 168° South  Level FlightAware Approximate
Sat 10:56:00 AM 8.7336 -75.6254 168° South  Level FlightAware Approximate
Sat 10:57:00 AM 8.6125 -75.6003 168° South  Level FlightAware Approximate
Sat 10:58:00 AM 8.4914 -75.5753 168° South  Level FlightAware Approximate
Sat 10:59:00 AM 8.3703 -75.5503 168° South  Level FlightAware Approximate
Sat 11:00:00 AM 8.2492 -75.5254 168° South  Level FlightAware Approximate
Sat 11:01:00 AM 8.1281 -75.5004 168° South  Level FlightAware Approximate
Sat 11:02:00 AM 8.0069 -75.4754 168° South  Level FlightAware Approximate
Sat 11:03:00 AM 7.8858 -75.4505 168° South  Level FlightAware Approximate
Sat 11:04:00 AM 7.7623 -75.4500 180° South  Level FlightAware Approximate
Sat 11:05:00 AM 7.6386 -75.4500 180° South  Level FlightAware Approximate
Sat 11:06:00 AM 7.5150 -75.4499 175° South  Level FlightAware Approximate
Sat 11:07:00 AM 7.3919 -75.4387 175° South  Level FlightAware Approximate
Sat 11:08:00 AM 7.2685 -75.4333 180° South  Level FlightAware Approximate
Sat 11:09:00 AM 7.1449 -75.4333 180° South  Level FlightAware Approximate
Sat 11:10:00 AM 7.0213 -75.4333 180° South  Level FlightAware Approximate
Sat 11:11:00 AM 6.8977 -75.4333 180° South  Level FlightAware Approximate
Sat 11:12:00 AM 6.7743 -75.4273 177° South  Level FlightAware Approximate
Sat 11:13:00 AM 6.6508 -75.4204 177° South  Level FlightAware Approximate
Sat 11:14:00 AM 6.5273 -75.4167 180° South  Level FlightAware Approximate
Sat 11:15:00 AM 6.4037 -75.4167 180° South  Level FlightAware Approximate
Sat 11:16:00 AM 6.2801 -75.4167 180° South  Level FlightAware Approximate
Sat 11:17:00 AM 6.1645 -75.4231 180° South  Level Estimated
Sat 11:18:00 AM 6.1645 -75.4231 180° South  Level Estimated
Sat 11:19:00 AM 6.1645 -75.4231 North  Level Estimated
Sat 11:20:00 AM 6.1645 -75.4231 North  Level Estimated
Sat 11:21:00 AM 6.1645 -75.4231 North  Level Estimated
Sat 11:22:00 AM 6.1645 -75.4231 North  Level Estimated
Sat 11:23:00 AM 6.1645 -75.4231 North  Level Estimated
Sat 11:24:00 AM 6.1645 -75.4231 North  Level Estimated
Sat 11:25:00 AM 6.1645 -75.4231 North  Level Estimated
Sat 11:26:00 AM 6.1645 -75.4231 North  Level Estimated
Sat 11:27:00 AM 6.1645 -75.4231 North  Level Estimated
Sat 11:28:00 AM 6.1645 -75.4231 North  Level Estimated
Sat 11:29:00 AM 6.1645 -75.4231 North  Level Estimated
Sat 11:30:00 AM 6.1645 -75.4231 North  Level Estimated
Sat 11:31:00 AM 6.1645 -75.4231 North  Level Estimated
Sat 11:32:00 AM 6.1645 -75.4231 North  Level Estimated
Sat 11:33:00 AM 6.1645 -75.4231 North  Level Estimated
Sat 11:34:00 AM 6.1645 -75.4231 North  Level Estimated

Login

Don't have an account? Register now (free) for customized features, flight alerts, and more!